Time;durP1;ratioP1;P1;durP2;ratioP2;P2;SDS_P1;SDS_P2;PMS_P1;PMS_P2;Temp;Humidity;BMP_temperature;BMP_pressure;BME280_temperature;BME280_humidity;BME280_pressure;Samples;Min_cycle;Max_cycle;Signal;HPM_P1;HPM_P2
2021/10/02 00:35:49;;;;;;;14.90;13.30;;;13.00;99.90;;;;;;5088838;28;20054;-63
2021/10/02 00:46:15;;;;;;;16.00;14.30;;;13.00;99.90;;;;;;5088802;28;20047;-62
2021/10/02 00:48:41;;;;;;;15.13;13.65;;;13.00;99.90;;;;;;5089305;28;20044;-62
2021/10/02 00:51:07;;;;;;;15.63;13.73;;;13.00;99.90;;;;;;5088503;28;20043;-62
2021/10/02 00:53:33;;;;;;;17.38;15.57;;;13.00;99.90;;;;;;5081481;28;20042;-62
2021/10/02 00:55:59;;;;;;;16.67;14.95;;;13.00;99.90;;;;;;5085818;28;20119;-62
2021/10/02 00:58:25;;;;;;;15.82;14.13;;;13.00;99.90;;;;;;5087924;28;20372;-62
2021/10/02 01:00:54;;;;;;;18.05;15.13;;;13.00;99.90;;;;;;5074683;28;20466;-62
2021/10/02 01:03:42;;;;;;;15.52;13.93;;;13.00;99.90;;;;;;5090674;28;20067;-62
2021/10/02 01:06:23;;;;;;;15.55;13.95;;;12.90;99.90;;;;;;5085496;28;20101;-62
2021/10/02 01:09:14;;;;;;;16.40;14.52;;;13.00;99.90;;;;;;5086727;28;20111;-61
2021/10/02 01:11:49;;;;;;;21.05;15.95;;;13.00;99.90;;;;;;5082721;28;20032;-62
2021/10/02 01:14:27;;;;;;;17.40;14.88;;;13.00;99.90;;;;;;5087782;28;20507;-62
2021/10/02 01:16:57;;;;;;;18.23;16.33;;;13.00;99.90;;;;;;5087769;28;20093;-62
2021/10/02 01:19:42;;;;;;;18.92;16.75;;;13.00;99.90;;;;;;5083537;28;20116;-62
2021/10/02 01:22:29;;;;;;;17.75;15.95;;;12.90;99.90;;;;;;5079229;28;20044;-62
2021/10/02 01:25:23;;;;;;;17.13;15.32;;;13.00;99.90;;;;;;5087297;28;20080;-62
2021/10/02 01:28:07;;;;;;;20.52;17.60;;;13.00;99.90;;;;;;5090012;28;20036;-62
2021/10/02 01:33:29;;;;;;;20.40;18.30;;;13.00;99.90;;;;;;5084147;28;20390;-62
2021/10/02 01:47:11;;;;;;;20.10;17.95;;;13.00;99.90;;;;;;5077557;28;20075;-62
2021/10/02 01:49:42;;;;;;;20.17;18.08;;;13.10;99.90;;;;;;5087629;28;20044;-62
2021/10/02 01:52:09;;;;;;;22.83;19.13;;;13.10;99.90;;;;;;5084933;28;20066;-62
2021/10/02 01:54:36;;;;;;;20.85;18.73;;;13.10;99.90;;;;;;5082898;28;20040;-62
2021/10/02 01:57:05;;;;;;;25.48;21.30;;;13.10;99.90;;;;;;5087692;28;20046;-62
2021/10/02 01:59:32;;;;;;;22.45;20.15;;;13.00;99.90;;;;;;5090262;28;20043;-61
2021/10/02 02:02:00;;;;;;;25.48;21.52;;;13.00;99.90;;;;;;5085537;28;20043;-62
2021/10/02 02:04:29;;;;;;;22.05;19.58;;;13.00;99.90;;;;;;5088228;28;20033;-62
2021/10/02 02:06:57;;;;;;;21.60;19.27;;;13.00;99.90;;;;;;5088770;28;20117;-62
2021/10/02 02:09:25;;;;;;;23.10;20.60;;;13.00;99.90;;;;;;5082841;28;20093;-62
2021/10/02 02:11:52;;;;;;;23.42;20.42;;;13.00;99.90;;;;;;5085870;28;20032;-62
2021/10/02 02:14:18;;;;;;;25.73;21.40;;;13.00;99.90;;;;;;5089279;28;20059;-62
2021/10/02 02:16:46;;;;;;;24.42;20.73;;;13.00;99.90;;;;;;5084652;28;20031;-62
2021/10/02 02:19:15;;;;;;;25.75;21.70;;;13.00;99.90;;;;;;5086427;28;20047;-62
2021/10/02 02:21:43;;;;;;;22.65;20.25;;;13.00;99.90;;;;;;5081870;28;20045;-62
2021/10/02 02:24:09;;;;;;;23.50;21.08;;;13.00;99.90;;;;;;5075312;28;20386;-62
2021/10/02 02:26:35;;;;;;;21.92;18.95;;;13.00;99.90;;;;;;5086100;28;20052;-62
2021/10/02 02:29:02;;;;;;;21.02;18.83;;;13.00;99.90;;;;;;5085957;28;20039;-62
2021/10/02 02:31:28;;;;;;;23.60;20.75;;;13.00;99.90;;;;;;5093122;28;20055;-62
2021/10/02 02:33:54;;;;;;;23.90;20.48;;;12.90;99.90;;;;;;5091559;28;20115;-62
2021/10/02 02:36:21;;;;;;;24.98;22.38;;;12.80;99.90;;;;;;5091590;28;20396;-62
2021/10/02 02:38:47;;;;;;;25.20;21.65;;;12.80;99.90;;;;;;5091480;28;20040;-62
2021/10/02 02:41:13;;;;;;;25.60;21.48;;;12.70;99.90;;;;;;5090941;28;20131;-62
2021/10/02 02:43:39;;;;;;;25.85;22.42;;;12.70;99.90;;;;;;5089565;28;20067;-62
2021/10/02 02:46:18;;;;;;;28.20;23.00;;;12.70;99.90;;;;;;5084567;28;20048;-62
2021/10/02 02:48:51;;;;;;;24.85;21.45;;;12.70;99.90;;;;;;5089864;28;20071;-62
2021/10/02 02:51:23;;;;;;;22.30;19.25;;;12.70;99.90;;;;;;5091709;28;20459;-62
2021/10/02 02:53:58;;;;;;;28.40;22.77;;;12.70;99.90;;;;;;5091904;28;20107;-62
2021/10/02 02:56:35;;;;;;;24.90;20.80;;;12.80;99.90;;;;;;5081328;28;20040;-62
2021/10/02 02:59:09;;;;;;;24.48;20.98;;;12.70;99.90;;;;;;5089341;28;20037;-62
2021/10/02 03:01:38;;;;;;;24.33;21.63;;;12.70;99.90;;;;;;5089051;28;20046;-62
2021/10/02 03:04:05;;;;;;;30.80;23.52;;;12.70;99.90;;;;;;5090921;28;20462;-62
2021/10/02 03:06:32;;;;;;;27.25;22.90;;;12.70;99.90;;;;;;5090934;28;20050;-62
2021/10/02 03:08:59;;;;;;;25.60;21.70;;;12.70;99.90;;;;;;5090873;28;20042;-62
2021/10/02 03:11:27;;;;;;;23.40;20.85;;;12.60;99.90;;;;;;5092031;28;20040;-62
2021/10/02 03:13:56;;;;;;;24.70;22.13;;;12.60;99.90;;;;;;5089692;28;20550;-62
2021/10/02 03:16:25;;;;;;;24.77;20.98;;;12.60;99.90;;;;;;5091882;28;20050;-62
2021/10/02 03:18:55;;;;;;;24.55;21.38;;;12.60;99.90;;;;;;5071860;28;20036;-61
2021/10/02 03:21:23;;;;;;;23.48;20.92;;;12.60;99.90;;;;;;5090381;28;20179;-62
2021/10/02 03:23:50;;;;;;;24.67;21.08;;;12.50;99.90;;;;;;5086029;28;20068;-62
2021/10/02 03:26:18;;;;;;;26.45;20.65;;;12.50;99.90;;;;;;5077706;28;20050;-62
2021/10/02 03:28:44;;;;;;;26.45;20.70;;;12.50;99.90;;;;;;5090272;28;20028;-62
2021/10/02 03:31:10;;;;;;;23.02;20.55;;;12.60;99.90;;;;;;5091534;28;20039;-62
2021/10/02 03:33:38;;;;;;;24.58;21.17;;;12.50;99.90;;;;;;5089786;28;20032;-62
2021/10/02 03:36:04;;;;;;;24.10;21.60;;;12.50;99.90;;;;;;5089140;28;20123;-62
2021/10/02 03:38:30;;;;;;;26.17;22.35;;;12.50;99.90;;;;;;5085991;28;20142;-62
2021/10/02 03:41:00;;;;;;;23.25;20.85;;;12.60;99.90;;;;;;5087735;28;20089;-62
2021/10/02 03:43:33;;;;;;;26.52;23.73;;;12.60;99.90;;;;;;5081382;28;20394;-62
2021/10/02 03:45:59;;;;;;;27.27;22.85;;;12.60;99.90;;;;;;5079564;28;20040;-62
2021/10/02 03:48:25;;;;;;;27.42;23.55;;;12.60;99.90;;;;;;5073675;28;20044;-62
2021/10/02 03:50:52;;;;;;;27.00;24.00;;;12.60;99.90;;;;;;5089870;28;20355;-62
2021/10/02 03:53:18;;;;;;;27.08;23.95;;;12.60;99.90;;;;;;5088640;28;20032;-62
2021/10/02 03:55:43;;;;;;;28.67;22.83;;;12.60;99.90;;;;;;5087813;28;20051;-62
2021/10/02 03:58:09;;;;;;;25.13;22.42;;;12.60;99.90;;;;;;5090163;28;20643;-62
2021/10/02 04:00:34;;;;;;;27.70;23.38;;;12.60;99.90;;;;;;5089679;28;20036;-62
2021/10/02 04:03:00;;;;;;;24.98;21.10;;;12.50;99.90;;;;;;5086528;28;20032;-62
2021/10/02 04:05:25;;;;;;;25.42;22.73;;;12.50;99.90;;;;;;5076469;28;20131;-62
2021/10/02 04:07:51;;;;;;;25.67;22.90;;;12.50;99.90;;;;;;5081836;28;20066;-62
2021/10/02 04:10:17;;;;;;;26.30;22.80;;;12.50;99.90;;;;;;5089963;28;20039;-62
2021/10/02 04:12:42;;;;;;;28.77;23.30;;;12.50;99.90;;;;;;5089524;28;20536;-62
2021/10/02 04:15:08;;;;;;;28.73;23.80;;;12.50;99.90;;;;;;5091115;28;20119;-62
2021/10/02 04:17:35;;;;;;;26.08;21.90;;;12.50;99.90;;;;;;5088592;28;20064;-63
2021/10/02 04:20:02;;;;;;;25.90;22.45;;;12.50;99.90;;;;;;5089965;28;20040;-63
2021/10/02 04:22:28;;;;;;;28.63;23.30;;;12.40;99.90;;;;;;5090529;28;20059;-62
2021/10/02 04:24:53;;;;;;;25.40;22.70;;;12.50;99.90;;;;;;5074614;28;20040;-62
2021/10/02 04:27:19;;;;;;;27.88;23.70;;;12.40;99.90;;;;;;5085267;28;20051;-62
2021/10/02 04:29:44;;;;;;;24.63;21.95;;;12.40;99.90;;;;;;5085922;28;20397;-62
2021/10/02 04:32:10;;;;;;;22.95;19.17;;;12.40;99.90;;;;;;5089332;28;20036;-62
2021/10/02 04:34:35;;;;;;;25.73;21.75;;;12.40;99.90;;;;;;5075202;28;20043;-62
2021/10/02 04:37:02;;;;;;;24.67;22.05;;;12.40;99.90;;;;;;5095959;22;20044;-66
2021/10/02 04:39:27;;;;;;;24.95;22.35;;;12.40;99.90;;;;;;5045918;28;20052;-66
2021/10/02 04:41:54;;;;;;;27.05;21.65;;;12.40;99.90;;;;;;5067067;28;20036;-66
2021/10/02 04:44:20;;;;;;;24.23;21.48;;;12.40;99.90;;;;;;5067115;28;20064;-66
2021/10/02 04:46:45;;;;;;;23.75;21.27;;;12.40;99.90;;;;;;5067949;28;20097;-66
2021/10/02 04:49:11;;;;;;;27.98;23.85;;;12.40;99.90;;;;;;5066125;28;20473;-66
2021/10/02 04:51:38;;;;;;;26.42;21.65;;;12.40;99.90;;;;;;5069034;28;20056;-66
2021/10/02 04:54:04;;;;;;;25.33;22.58;;;12.40;99.90;;;;;;5069798;28;20036;-66
2021/10/02 04:56:30;;;;;;;26.45;23.23;;;12.40;99.90;;;;;;5049680;28;20051;-66
2021/10/02 04:58:55;;;;;;;28.63;23.60;;;12.40;99.90;;;;;;5069344;28;20443;-66
2021/10/02 05:01:21;;;;;;;26.48;23.58;;;12.40;99.90;;;;;;5068611;28;20138;-66
2021/10/02 05:03:47;;;;;;;24.35;21.60;;;12.40;99.90;;;;;;5059910;28;20028;-66
2021/10/02 05:06:13;;;;;;;26.13;23.08;;;12.40;99.90;;;;;;5042040;28;20083;-66
2021/10/02 05:08:39;;;;;;;25.25;22.30;;;12.40;99.90;;;;;;5050667;28;20032;-66
2021/10/02 05:11:05;;;;;;;25.10;22.30;;;12.40;99.90;;;;;;5046077;28;20052;-66
2021/10/02 05:13:32;;;;;;;25.60;22.95;;;12.40;99.90;;;;;;5057476;28;20036;-66
2021/10/02 05:15:58;;;;;;;28.40;24.92;;;12.40;99.90;;;;;;5051028;28;20052;-66
2021/10/02 05:18:25;;;;;;;28.20;23.38;;;12.40;99.90;;;;;;5070179;28;20428;-66
2021/10/02 05:20:50;;;;;;;25.80;23.02;;;12.40;99.90;;;;;;5053173;28;20040;-66
2021/10/02 05:23:16;;;;;;;29.30;25.05;;;12.40;99.90;;;;;;5069658;28;20102;-66
2021/10/02 05:25:41;;;;;;;37.15;29.00;;;12.40;99.90;;;;;;5068754;28;20032;-66
2021/10/02 05:28:07;;;;;;;30.52;25.23;;;12.40;99.90;;;;;;5066087;28;20045;-66
2021/10/02 05:30:32;;;;;;;37.15;30.27;;;12.40;99.90;;;;;;5067352;28;20051;-65
2021/10/02 05:32:58;;;;;;;35.13;28.08;;;12.40;99.90;;;;;;5065885;28;20032;-65
2021/10/02 05:35:24;;;;;;;29.55;26.05;;;12.40;99.90;;;;;;5069405;28;20036;-65
2021/10/02 05:37:49;;;;;;;30.90;26.98;;;12.40;99.90;;;;;;5067691;28;20431;-66
2021/10/02 05:40:16;;;;;;;29.65;25.88;;;12.40;99.90;;;;;;5051266;28;20402;-68
2021/10/02 05:42:41;;;;;;;27.38;24.15;;;12.40;99.90;;;;;;5069902;28;20452;-66
2021/10/02 05:45:07;;;;;;;34.95;27.83;;;12.40;99.90;;;;;;5050922;28;20037;-66
2021/10/02 05:47:33;;;;;;;39.08;29.13;;;12.40;99.90;;;;;;5055199;28;20106;-66
2021/10/02 05:49:59;;;;;;;33.05;25.90;;;12.40;99.90;;;;;;5052437;28;20033;-66
2021/10/02 05:52:26;;;;;;;31.92;26.60;;;12.50;99.90;;;;;;5079683;28;20048;-66
2021/10/02 05:54:52;;;;;;;34.92;27.60;;;12.40;99.90;;;;;;5049905;28;20123;-66
2021/10/02 05:57:17;;;;;;;31.08;26.17;;;12.40;99.90;;;;;;5068986;28;20059;-66
2021/10/02 05:59:44;;;;;;;35.10;27.60;;;12.50;99.90;;;;;;5051555;28;20473;-66
2021/10/02 06:02:09;;;;;;;25.65;22.95;;;12.50;99.90;;;;;;5066907;28;20128;-66
2021/10/02 06:04:35;;;;;;;29.42;25.17;;;12.50;99.90;;;;;;5070359;28;20530;-66
2021/10/02 06:07:01;;;;;;;46.25;33.15;;;12.50;99.90;;;;;;5072106;28;20056;-65
2021/10/02 06:09:26;;;;;;;43.25;30.67;;;12.50;99.90;;;;;;5072939;28;20045;-65
2021/10/02 06:11:52;;;;;;;45.28;31.92;;;12.50;99.90;;;;;;5071552;28;20044;-65
2021/10/02 06:14:17;;;;;;;35.03;27.55;;;12.50;99.90;;;;;;5069442;28;20048;-65
2021/10/02 06:16:43;;;;;;;38.90;29.55;;;12.50;99.90;;;;;;5073079;28;20041;-66
2021/10/02 06:19:09;;;;;;;32.10;26.33;;;12.60;99.90;;;;;;5073356;28;20118;-66
2021/10/02 06:21:35;;;;;;;31.67;24.52;;;12.50;99.90;;;;;;5072381;28;20200;-66
2021/10/02 06:24:00;;;;;;;35.92;27.65;;;12.50;99.90;;;;;;5073271;28;20037;-66
2021/10/02 06:26:28;;;;;;;36.42;27.58;;;12.60;99.90;;;;;;5071645;28;20146;-66
2021/10/02 06:28:54;;;;;;;27.90;24.02;;;12.60;99.90;;;;;;5071083;28;20443;-66
2021/10/02 06:31:20;;;;;;;27.58;24.42;;;12.50;99.90;;;;;;5073114;28;20090;-67
2021/10/02 06:33:45;;;;;;;30.83;25.67;;;12.50;99.90;;;;;;5073563;28;20032;-67
2021/10/02 06:36:12;;;;;;;26.98;23.73;;;12.50;99.90;;;;;;5069480;28;20066;-67
2021/10/02 06:38:38;;;;;;;23.15;19.27;;;12.60;99.90;;;;;;5070231;28;20508;-66
2021/10/02 06:41:04;;;;;;;20.20;17.17;;;12.60;99.90;;;;;;5071336;28;20036;-66
2021/10/02 06:43:29;;;;;;;19.58;17.48;;;12.60;99.90;;;;;;5071297;28;20488;-66
2021/10/02 06:45:55;;;;;;;19.67;17.38;;;12.50;99.90;;;;;;5070728;28;20459;-66
2021/10/02 06:48:20;;;;;;;21.83;19.20;;;12.60;99.90;;;;;;5072759;28;20048;-66
2021/10/02 06:50:46;;;;;;;25.40;22.48;;;12.50;99.90;;;;;;5054354;28;20097;-66
2021/10/02 06:53:12;;;;;;;30.25;25.38;;;12.60;99.90;;;;;;5072827;28;20678;-66
2021/10/02 06:55:37;;;;;;;31.27;27.17;;;12.60;99.90;;;;;;5054887;28;20062;-66
2021/10/02 06:58:03;;;;;;;32.97;26.33;;;12.60;99.90;;;;;;5072274;28;20052;-67
2021/10/02 07:00:28;;;;;;;35.70;28.83;;;12.60;99.90;;;;;;5071128;28;20111;-68
2021/10/02 07:02:54;;;;;;;38.90;29.08;;;12.70;99.90;;;;;;5054382;28;20040;-76
2021/10/02 07:05:20;;;;;;;32.53;28.75;;;12.80;99.90;;;;;;5054804;28;20048;-67
2021/10/02 07:07:46;;;;;;;40.13;29.52;;;12.90;99.90;;;;;;5071975;28;20037;-67
2021/10/02 07:10:12;;;;;;;34.75;28.92;;;13.00;99.90;;;;;;5071898;28;20043;-67
2021/10/02 07:12:37;;;;;;;36.13;28.45;;;13.10;99.90;;;;;;5072323;28;20044;-67
2021/10/02 07:15:05;;;;;;;42.65;31.67;;;13.20;99.90;;;;;;5071652;28;20603;-67
2021/10/02 07:17:30;;;;;;;38.65;30.65;;;13.30;99.90;;;;;;5070848;28;20363;-67
2021/10/02 07:19:56;;;;;;;35.80;30.00;;;13.30;99.90;;;;;;5071930;28;20174;-67
2021/10/02 07:22:21;;;;;;;39.78;31.48;;;13.30;99.90;;;;;;5072242;28;20438;-67
2021/10/02 07:24:47;;;;;;;36.75;31.15;;;13.30;99.90;;;;;;5071762;28;20047;-67
2021/10/02 07:27:13;;;;;;;36.97;29.95;;;13.40;99.90;;;;;;5062452;28;20037;-67
2021/10/02 07:29:39;;;;;;;46.88;39.28;;;13.40;99.90;;;;;;5070096;28;20040;-67
2021/10/02 07:32:05;;;;;;;45.28;35.20;;;13.40;99.90;;;;;;5053188;28;20036;-67
2021/10/02 07:34:31;;;;;;;32.15;27.90;;;13.50;99.90;;;;;;5036912;28;20292;-67
2021/10/02 07:36:56;;;;;;;31.67;25.42;;;13.50;99.90;;;;;;5053736;28;20374;-67
2021/10/02 07:39:22;;;;;;;33.42;29.80;;;13.50;99.90;;;;;;5065820;28;20095;-67
2021/10/02 07:41:51;;;;;;;33.80;28.40;;;13.60;99.90;;;;;;5070960;28;20033;-67
2021/10/02 07:44:27;;;;;;;29.92;26.40;;;13.60;99.90;;;;;;5069401;28;20053;-67
2021/10/02 07:46:55;;;;;;;30.80;27.50;;;13.60;99.90;;;;;;5047273;28;20064;-67
2021/10/02 07:49:22;;;;;;;32.50;28.35;;;13.70;99.90;;;;;;5069480;28;20047;-67
2021/10/02 07:51:49;;;;;;;33.45;28.77;;;13.70;99.90;;;;;;5049914;28;20079;-67
2021/10/02 07:54:17;;;;;;;31.77;27.02;;;13.70;99.90;;;;;;5071715;28;20063;-68
2021/10/02 07:56:43;;;;;;;29.98;26.40;;;13.70;99.90;;;;;;5060308;28;20529;-68
2021/10/02 07:59:11;;;;;;;32.97;29.13;;;13.80;99.90;;;;;;5068423;28;20040;-68
2021/10/02 08:01:37;;;;;;;38.55;32.35;;;13.80;99.90;;;;;;5071666;28;20098;-68
2021/10/02 08:04:04;;;;;;;35.60;31.67;;;13.80;99.90;;;;;;5069408;28;20068;-68
2021/10/02 08:06:34;;;;;;;37.25;31.75;;;13.90;99.90;;;;;;5068360;28;20072;-68
2021/10/02 08:09:01;;;;;;;34.00;30.45;;;13.90;99.90;;;;;;5069191;28;20040;-68
2021/10/02 08:11:27;;;;;;;28.63;25.08;;;14.00;99.90;;;;;;5052190;28;20082;-68
2021/10/02 08:13:54;;;;;;;28.52;25.48;;;14.00;99.90;;;;;;5066765;28;20032;-69
2021/10/02 08:16:25;;;;;;;29.65;26.33;;;14.10;99.90;;;;;;5070984;28;20123;-68
2021/10/02 08:18:55;;;;;;;31.70;26.02;;;14.20;99.90;;;;;;5067962;28;20043;-68
2021/10/02 08:21:21;;;;;;;30.65;26.60;;;14.20;99.90;;;;;;5069739;28;20052;-68
2021/10/02 08:23:47;;;;;;;27.08;24.27;;;14.30;99.90;;;;;;5050679;28;20063;-66
2021/10/02 08:26:16;;;;;;;31.67;24.70;;;14.50;99.90;;;;;;5063323;28;20086;-66
2021/10/02 08:28:50;;;;;;;25.90;22.45;;;14.60;99.90;;;;;;5065016;28;20139;-66
2021/10/02 08:31:21;;;;;;;25.13;22.52;;;14.70;99.90;;;;;;5068299;28;20045;-66
2021/10/02 08:33:47;;;;;;;23.63;21.10;;;14.60;99.90;;;;;;5068995;28;20539;-65
2021/10/02 08:36:14;;;;;;;24.05;21.60;;;14.70;99.90;;;;;;5068671;28;20083;-66
2021/10/02 08:38:39;;;;;;;24.10;21.50;;;14.80;99.90;;;;;;5064651;28;20044;-66
2021/10/02 08:41:07;;;;;;;22.85;20.67;;;14.90;99.90;;;;;;5065483;28;20040;-70
2021/10/02 08:43:34;;;;;;;23.23;20.80;;;14.90;99.90;;;;;;5043528;28;20155;-67
2021/10/02 08:46:04;;;;;;;23.45;20.90;;;15.00;99.90;;;;;;5063292;28;20462;-67
2021/10/02 08:48:31;;;;;;;22.80;20.38;;;15.00;99.90;;;;;;5061865;28;20040;-66
2021/10/02 08:51:00;;;;;;;22.20;19.90;;;15.00;99.90;;;;;;5045963;28;20081;-67
2021/10/02 08:53:29;;;;;;;22.75;19.90;;;15.00;99.90;;;;;;5065071;28;20041;-67
2021/10/02 08:55:55;;;;;;;19.55;17.48;;;15.20;99.90;;;;;;5063370;28;20071;-67
2021/10/02 08:58:21;;;;;;;18.02;16.10;;;15.40;99.90;;;;;;5062013;28;20121;-72
2021/10/02 09:00:47;;;;;;;18.48;15.73;;;15.50;99.90;;;;;;5058433;28;20037;-72
2021/10/02 09:03:12;;;;;;;20.02;16.48;;;15.50;99.90;;;;;;5043741;28;20051;-72
2021/10/02 09:05:38;;;;;;;18.88;16.73;;;15.50;99.90;;;;;;5045075;28;20040;-72
2021/10/02 09:08:04;;;;;;;17.15;15.32;;;15.40;99.90;;;;;;5049555;28;20032;-72
2021/10/02 09:10:33;;;;;;;17.73;15.65;;;15.40;99.90;;;;;;5050036;28;20033;-72
2021/10/02 09:12:59;;;;;;;14.65;13.20;;;15.30;99.90;;;;;;5033327;28;20041;-71
2021/10/02 09:15:26;;;;;;;18.25;15.50;;;15.30;99.90;;;;;;5046426;28;20036;-71
2021/10/02 09:17:52;;;;;;;19.50;14.93;;;15.40;99.90;;;;;;5033691;28;20045;-71
2021/10/02 09:20:18;;;;;;;18.10;16.25;;;15.30;99.90;;;;;;5068851;28;20117;-71
2021/10/02 09:22:51;;;;;;;19.20;16.13;;;15.30;99.90;;;;;;5045468;28;20085;-71
2021/10/02 09:25:17;;;;;;;18.98;16.50;;;15.30;99.90;;;;;;5043774;28;20036;-71
2021/10/02 09:27:42;;;;;;;18.05;16.02;;;15.40;99.90;;;;;;5048886;28;20502;-71
2021/10/02 09:30:11;;;;;;;20.50;17.13;;;15.40;99.90;;;;;;5048756;28;20029;-72
2021/10/02 09:32:45;;;;;;;25.85;18.42;;;15.40;99.90;;;;;;5032962;28;20115;-71
2021/10/02 09:35:16;;;;;;;19.85;17.77;;;15.60;99.90;;;;;;5045428;28;20499;-75
2021/10/02 09:37:44;;;;;;;22.70;16.70;;;15.70;99.90;;;;;;5048079;28;20062;-71
2021/10/02 09:40:14;;;;;;;20.90;17.25;;;15.80;99.90;;;;;;5031395;28;20515;-72
2021/10/02 09:42:55;;;;;;;17.85;16.15;;;16.00;99.90;;;;;;5051978;28;20252;-72
2021/10/02 09:45:41;;;;;;;17.77;15.15;;;16.20;99.90;;;;;;5069968;28;20097;-72
2021/10/02 09:48:24;;;;;;;18.52;14.30;;;16.30;99.90;;;;;;5052269;28;20048;-72
2021/10/02 09:50:50;;;;;;;18.92;14.65;;;16.40;99.90;;;;;;5047735;28;20352;-72
2021/10/02 09:53:19;;;;;;;17.75;15.93;;;16.50;99.90;;;;;;5052650;28;20040;-72
2021/10/02 09:55:47;;;;;;;19.48;16.00;;;16.50;99.90;;;;;;5045858;28;20036;-72
2021/10/02 09:58:15;;;;;;;20.55;16.30;;;16.50;99.90;;;;;;5049581;28;20052;-71
2021/10/02 10:00:48;;;;;;;21.73;15.52;;;16.60;99.90;;;;;;5046889;28;20051;-71
2021/10/02 10:03:17;;;;;;;21.23;15.85;;;16.70;99.90;;;;;;5050540;28;20789;-72
2021/10/02 10:05:48;;;;;;;18.25;14.82;;;16.70;99.90;;;;;;5043835;28;20105;-72
2021/10/02 10:08:22;;;;;;;16.08;13.80;;;16.70;99.90;;;;;;5063651;28;20032;-72
2021/10/02 10:10:48;;;;;;;16.80;13.93;;;16.70;99.90;;;;;;5048452;28;20114;-71
2021/10/02 10:13:21;;;;;;;18.50;12.80;;;16.60;99.90;;;;;;5059407;28;20501;-71
2021/10/02 10:15:50;;;;;;;16.55;12.35;;;16.70;99.90;;;;;;5066190;28;20143;-71
2021/10/02 10:18:38;;;;;;;15.70;12.30;;;16.70;99.90;;;;;;5048195;28;20128;-72
2021/10/02 10:21:13;;;;;;;16.15;12.70;;;16.80;99.90;;;;;;5050964;28;20045;-72
2021/10/02 10:23:45;;;;;;;17.77;13.43;;;16.90;99.90;;;;;;5052339;28;20040;-72
2021/10/02 10:26:19;;;;;;;13.82;11.90;;;17.10;99.90;;;;;;5049256;28;20040;-71
2021/10/02 10:28:47;;;;;;;17.65;12.55;;;17.30;99.90;;;;;;5050849;28;20083;-72
2021/10/02 10:31:22;;;;;;;18.52;12.10;;;17.40;99.90;;;;;;5046797;28;20055;-72
2021/10/02 10:33:53;;;;;;;17.13;11.75;;;17.50;99.90;;;;;;5064135;28;20082;-72
2021/10/02 10:36:20;;;;;;;15.03;12.07;;;17.50;99.90;;;;;;5052545;28;20060;-72
2021/10/02 10:38:48;;;;;;;13.63;10.52;;;17.50;99.90;;;;;;5051566;28;20306;-72
2021/10/02 10:41:15;;;;;;;13.93;10.85;;;17.50;99.90;;;;;;5050764;28;20068;-72
2021/10/02 10:43:41;;;;;;;12.75;10.10;;;17.50;99.90;;;;;;5069844;28;20414;-72
2021/10/02 10:46:12;;;;;;;12.25;10.30;;;17.50;99.90;;;;;;5066022;28;20059;-72
2021/10/02 10:48:42;;;;;;;13.50;10.75;;;17.60;99.90;;;;;;5051492;28;20032;-72
2021/10/02 10:51:10;;;;;;;10.02;8.88;;;17.60;99.90;;;;;;5064488;28;20506;-72
2021/10/02 10:53:42;;;;;;;8.57;7.30;;;17.70;99.90;;;;;;5053093;28;20052;-72
2021/10/02 10:56:10;;;;;;;10.63;8.00;;;17.60;99.90;;;;;;5052679;28;20123;-72
2021/10/02 10:58:36;;;;;;;9.27;6.85;;;17.60;99.90;;;;;;5040937;28;20067;-72
2021/10/02 11:01:05;;;;;;;7.85;5.55;;;17.70;99.90;;;;;;5041691;28;20095;-72
2021/10/02 11:03:43;;;;;;;9.75;4.80;;;17.60;99.90;;;;;;5038602;28;20072;-72
2021/10/02 11:06:18;;;;;;;7.85;5.20;;;17.80;99.90;;;;;;5052374;28;20049;-72
2021/10/02 11:09:08;;;;;;;4.72;4.07;;;17.80;99.90;;;;;;5050638;28;20608;-72
2021/10/02 11:11:55;;;;;;;7.43;3.92;;;17.80;99.90;;;;;;5069080;28;20051;-72
2021/10/02 11:14:41;;;;;;;4.80;3.80;;;17.70;99.90;;;;;;5053563;28;20043;-72
2021/10/02 11:17:10;;;;;;;5.32;3.92;;;17.50;99.90;;;;;;5051666;28;20473;-72
2021/10/02 11:19:41;;;;;;;7.78;3.78;;;17.40;99.90;;;;;;5049580;28;20079;-72
2021/10/02 11:23:08;;;;;;;4.65;2.90;;;17.30;99.90;;;;;;5052662;28;20048;-73
2021/10/02 11:25:35;;;;;;;12.77;3.75;;;17.20;99.90;;;;;;5050847;28;20449;-73
2021/10/02 11:28:27;;;;;;;6.68;3.78;;;17.30;99.90;;;;;;5054169;28;20566;-72
2021/10/02 11:30:55;;;;;;;9.07;3.42;;;17.20;99.90;;;;;;5054336;28;20101;-72
2021/10/02 11:33:43;;;;;;;3.53;3.00;;;17.20;99.90;;;;;;5072034;28;20043;-72
2021/10/02 11:36:27;;;;;;;5.78;2.95;;;17.30;99.90;;;;;;5053197;28;20091;-72
2021/10/02 11:39:08;;;;;;;5.70;3.17;;;17.40;99.90;;;;;;5054496;28;20086;-73
2021/10/02 11:41:46;;;;;;;7.15;3.25;;;17.40;99.90;;;;;;5069789;28;20047;-73
2021/10/02 11:44:18;;;;;;;6.22;2.92;;;17.50;99.90;;;;;;5051517;28;20143;-72
2021/10/02 11:46:44;;;;;;;7.30;3.17;;;17.50;99.90;;;;;;5051511;28;20079;-76
2021/10/02 11:49:16;;;;;;;9.50;3.60;;;17.50;99.90;;;;;;5069859;28;20646;-76
2021/10/02 11:51:42;;;;;;;7.25;2.92;;;17.40;99.90;;;;;;5049178;28;20071;-75
2021/10/02 11:54:07;;;;;;;9.05;3.20;;;17.40;99.90;;;;;;5052323;28;20481;-75
2021/10/02 11:56:35;;;;;;;7.75;3.10;;;17.30;99.90;;;;;;5053000;28;20059;-75
2021/10/02 11:59:01;;;;;;;6.07;2.65;;;17.30;99.90;;;;;;5036540;28;20520;-76
2021/10/02 12:01:33;;;;;;;6.57;2.97;;;17.20;99.90;;;;;;5069520;28;20051;-75
2021/10/02 12:03:58;;;;;;;5.38;2.95;;;17.20;99.90;;;;;;5048263;28;20072;-75
2021/10/02 12:06:24;;;;;;;7.53;3.13;;;17.10;99.90;;;;;;5052203;28;20379;-75
2021/10/02 12:08:50;;;;;;;8.85;3.33;;;17.10;99.90;;;;;;5034016;28;20067;-76
2021/10/02 12:11:17;;;;;;;4.88;2.80;;;17.10;99.90;;;;;;5052357;28;20050;-76
2021/10/02 12:13:52;;;;;;;9.05;2.80;;;17.10;99.90;;;;;;5050685;28;20039;-75
2021/10/02 12:16:29;;;;;;;5.07;3.08;;;17.10;99.90;;;;;;5052254;28;20520;-75
2021/10/02 12:19:10;;;;;;;5.78;2.92;;;17.20;99.90;;;;;;5052196;28;20059;-75
2021/10/02 12:21:44;;;;;;;8.20;2.92;;;17.20;99.90;;;;;;5051856;28;20044;-76
2021/10/02 12:24:27;;;;;;;5.63;2.65;;;17.20;99.90;;;;;;5052379;28;20204;-76
2021/10/02 12:27:02;;;;;;;5.82;2.85;;;17.20;99.90;;;;;;5050334;28;20446;-75
2021/10/02 12:29:32;;;;;;;6.75;2.75;;;17.20;99.90;;;;;;5051703;28;20033;-75
2021/10/02 12:32:07;;;;;;;4.75;2.50;;;17.30;99.90;;;;;;5051400;28;20035;-75
2021/10/02 12:34:39;;;;;;;6.97;3.03;;;17.30;99.90;;;;;;5049365;28;20032;-75
2021/10/02 12:37:10;;;;;;;5.53;2.70;;;17.20;99.90;;;;;;5050917;28;20131;-75
2021/10/02 12:39:41;;;;;;;5.38;2.92;;;17.20;99.90;;;;;;5051501;28;20089;-75
2021/10/02 12:42:08;;;;;;;5.47;3.13;;;17.30;99.90;;;;;;5052127;28;20182;-75
2021/10/02 12:44:37;;;;;;;6.60;2.60;;;17.20;99.90;;;;;;5050846;28;20044;-75
2021/10/02 12:47:05;;;;;;;4.43;2.55;;;17.20;99.90;;;;;;5051822;28;20093;-75
2021/10/02 12:49:37;;;;;;;5.93;3.10;;;17.20;99.90;;;;;;5049067;28;20048;-75
2021/10/02 12:52:03;;;;;;;;;;;17.10;99.90;;;;;;5050017;28;20123;-74
2021/10/02 12:54:29;;;;;;;5.40;3.17;;;17.10;99.90;;;;;;5027874;28;19916;-73
2021/10/02 12:57:01;;;;;;;5.25;3.10;;;17.10;99.90;;;;;;5034723;28;20561;-74
2021/10/02 12:59:40;;;;;;;8.82;3.28;;;17.00;99.90;;;;;;5035296;28;20049;-74
2021/10/02 13:02:06;;;;;;;5.75;3.60;;;17.00;99.90;;;;;;5047001;28;20047;-73
2021/10/02 13:04:33;;;;;;;4.30;3.30;;;16.90;99.90;;;;;;5049462;28;20036;-74
2021/10/02 13:07:00;;;;;;;6.40;3.20;;;16.80;99.90;;;;;;5052009;28;20040;-74
2021/10/02 13:09:26;;;;;;;7.63;4.00;;;16.80;99.90;;;;;;5049477;28;20044;-74
2021/10/02 13:11:53;;;;;;;7.35;3.97;;;16.80;99.90;;;;;;5050047;28;20047;-74
2021/10/02 13:14:36;;;;;;;6.22;4.38;;;16.70;99.90;;;;;;5036110;28;20048;-73
2021/10/02 13:17:08;;;;;;;8.80;5.13;;;16.70;99.90;;;;;;5051843;28;20068;-74
2021/10/02 13:19:34;;;;;;;4.18;3.55;;;16.70;99.90;;;;;;5050696;28;20036;-74
2021/10/02 13:22:15;;;;;;;6.43;3.08;;;16.80;99.90;;;;;;5045414;28;20043;-74
2021/10/02 13:25:07;;;;;;;6.88;3.35;;;16.80;99.90;;;;;;5040338;28;20397;-75
2021/10/02 13:27:38;;;;;;;5.35;2.63;;;16.80;99.90;;;;;;5044931;28;20041;-74
2021/10/02 13:30:05;;;;;;;5.32;3.08;;;16.90;99.90;;;;;;5051562;28;20054;-73
2021/10/02 13:32:30;;;;;;;9.40;3.30;;;16.80;99.90;;;;;;5045211;28;20402;-73
2021/10/02 13:34:56;;;;;;;6.75;3.38;;;16.80;99.90;;;;;;5048287;28;20047;-73
2021/10/02 13:37:23;;;;;;;5.40;3.30;;;16.70;99.90;;;;;;5050606;28;20084;-74